Salto Do Ceu, Brazil
Current Conditions -  °F | °C
As of 4:00 PM on Friday 31 Oct 2014 (Local Time) from SBCY Reporting Station
Scattered Clouds Scattered Clouds  
Wind Chill: 90°   Ceiling: Unl
Heat Index: 95°   Visibility: 6mi
Dew Point: 70°   Wind: 3mph
Humidity: 52%   Direction: 50°NE
Pressure: 29.77"   Gusts: NA
Location:  15.13°S, 58.13°W
Report Text: SBCY 311900Z 05003KT 9999 SCT020 32/21 Q1008
Loading
Personal Weather Stations






























Interactive Weather Map
Tropical Storm Tracking
New forecast layout! Learn more

10-Day Weather Forecast

Advertisements
Track Severe Weather on mobile